createdAt,value
2018-12-15T00:00:11.018Z,0
2018-12-15T00:01:03.442Z,0
2018-12-15T00:01:55.836Z,0
2018-12-15T00:02:48.170Z,0
2018-12-15T00:03:41.706Z,0
2018-12-15T00:04:33.935Z,0
2018-12-15T00:05:26.093Z,0
2018-12-15T00:06:18.378Z,0
2018-12-15T00:07:10.442Z,0
2018-12-15T00:08:02.722Z,0
2018-12-15T00:08:54.539Z,0
2018-12-15T00:09:46.755Z,0
2018-12-15T00:10:39.009Z,0
2018-12-15T00:11:31.582Z,0
2018-12-15T00:12:23.671Z,0
2018-12-15T00:13:16.111Z,0
2018-12-15T00:14:08.884Z,0
2018-12-15T00:15:01.199Z,0
2018-12-15T00:15:53.263Z,0
2018-12-15T00:16:45.437Z,0
2018-12-15T00:17:37.090Z,0
2018-12-15T00:19:53.156Z,0
2018-12-15T00:20:33.569Z,0
2018-12-15T00:21:13.941Z,0
2018-12-15T00:21:54.311Z,0
2018-12-15T00:22:34.694Z,0
2018-12-15T00:23:15.119Z,0
2018-12-15T00:23:55.497Z,0
2018-12-15T00:24:35.890Z,0
2018-12-15T00:25:16.270Z,0
2018-12-15T00:25:56.678Z,0
2018-12-15T00:26:37.090Z,0
2018-12-15T00:27:17.516Z,0
2018-12-15T00:27:57.928Z,0
2018-12-15T00:28:38.329Z,0
2018-12-15T00:29:18.738Z,0
2018-12-15T00:29:59.125Z,0
2018-12-15T00:30:39.561Z,0
2018-12-15T00:31:19.931Z,0
2018-12-15T00:32:00.329Z,0
2018-12-15T00:32:40.733Z,0
2018-12-15T00:33:21.113Z,0
2018-12-15T00:34:01.499Z,0
2018-12-15T00:34:41.891Z,0
2018-12-15T00:35:22.259Z,0
2018-12-15T00:36:02.649Z,0
2018-12-15T00:36:43.041Z,0
2018-12-15T00:37:23.416Z,0
2018-12-15T00:38:03.783Z,0
2018-12-15T00:38:44.187Z,0
2018-12-15T00:39:24.584Z,0
2018-12-15T00:40:04.961Z,0
2018-12-15T00:40:45.891Z,0
2018-12-15T00:41:26.302Z,0
2018-12-15T00:42:06.675Z,0
2018-12-15T00:42:47.108Z,0
2018-12-15T00:43:27.517Z,0
2018-12-15T00:44:07.880Z,0
2018-12-15T00:44:48.260Z,0
2018-12-15T00:45:28.646Z,0
2018-12-15T00:46:09.032Z,0
2018-12-15T00:46:49.442Z,0
2018-12-15T00:47:29.812Z,0
2018-12-15T00:48:10.199Z,0
2018-12-15T00:48:50.586Z,0
2018-12-15T00:49:30.973Z,0
2018-12-15T00:50:11.390Z,0
2018-12-15T00:50:51.759Z,0
2018-12-15T00:51:32.142Z,0
2018-12-15T00:52:12.540Z,0
2018-12-15T00:52:52.943Z,0
2018-12-15T00:54:50.372Z,0
2018-12-15T00:55:30.779Z,0
2018-12-15T00:56:11.221Z,0
2018-12-15T00:56:51.590Z,0
2018-12-15T00:57:31.980Z,0
2018-12-15T00:58:12.333Z,0
2018-12-15T01:00:39.987Z,0
2018-12-15T01:01:20.427Z,0
2018-12-15T01:02:00.800Z,0
2018-12-15T01:02:41.197Z,0
2018-12-15T01:03:21.565Z,0
2018-12-15T01:04:01.997Z,0
2018-12-15T01:04:42.403Z,0
2018-12-15T01:06:39.814Z,0
2018-12-15T01:07:20.326Z,0
2018-12-15T01:09:47.907Z,0
2018-12-15T01:10:28.333Z,0
2018-12-15T01:11:08.755Z,0
2018-12-15T01:11:49.151Z,0
2018-12-15T01:12:29.575Z,0
2018-12-15T01:13:09.970Z,0
2018-12-15T01:13:50.368Z,0
2018-12-15T01:14:30.738Z,0
2018-12-15T01:15:11.152Z,0
2018-12-15T01:15:51.533Z,0
2018-12-15T01:16:31.918Z,0
2018-12-15T01:17:12.325Z,0
2018-12-15T01:17:52.728Z,0
2018-12-15T01:18:33.109Z,0
2018-12-15T01:19:13.497Z,0
2018-12-15T01:19:53.859Z,0
2018-12-15T01:20:34.257Z,0
2018-12-15T01:21:14.635Z,0
2018-12-15T01:21:55.055Z,0
2018-12-15T01:22:35.444Z,0
2018-12-15T01:23:15.846Z,0
2018-12-15T01:23:56.269Z,0
2018-12-15T01:24:36.663Z,0
2018-12-15T01:25:17.045Z,0
2018-12-15T01:25:57.454Z,0
2018-12-15T01:26:37.834Z,0
2018-12-15T01:27:18.256Z,0
2018-12-15T01:27:58.686Z,0
2018-12-15T01:28:39.078Z,0
2018-12-15T01:31:11.806Z,0
2018-12-15T01:31:52.210Z,0
2018-12-15T01:34:19.833Z,0
2018-12-15T01:35:00.255Z,0
2018-12-15T01:35:40.676Z,0
2018-12-15T01:36:21.098Z,0
2018-12-15T01:37:01.468Z,0
2018-12-15T01:37:41.880Z,0
2018-12-15T01:38:22.302Z,0
2018-12-15T01:39:02.697Z,0
2018-12-15T01:39:43.094Z,0
2018-12-15T01:40:23.499Z,0
2018-12-15T01:41:03.903Z,0
2018-12-15T01:41:44.271Z,0
2018-12-15T01:42:24.650Z,0
2018-12-15T01:43:05.055Z,0
2018-12-15T01:43:45.451Z,0
2018-12-15T01:44:25.876Z,0
2018-12-15T01:45:06.221Z,0
2018-12-15T01:45:46.638Z,0
2018-12-15T01:46:27.011Z,0
2018-12-15T01:47:07.420Z,0
2018-12-15T01:47:47.794Z,0
2018-12-15T01:48:28.170Z,0
2018-12-15T01:49:08.543Z,0
2018-12-15T01:49:48.942Z,0
2018-12-15T01:50:29.309Z,0
2018-12-15T01:51:09.714Z,0
2018-12-15T01:51:50.118Z,0
2018-12-15T01:52:30.499Z,0
2018-12-15T01:53:10.929Z,0
2018-12-15T01:53:51.337Z,0
2018-12-15T01:54:31.710Z,0
2018-12-15T01:55:12.151Z,0
2018-12-15T01:55:52.564Z,0
2018-12-15T01:56:32.979Z,0
2018-12-15T01:57:13.359Z,0
2018-12-15T01:57:53.776Z,0
2018-12-15T01:58:34.144Z,0
2018-12-15T01:59:14.520Z,0
2018-12-15T01:59:54.923Z,0
2018-12-15T02:00:35.283Z,0
2018-12-15T02:01:15.652Z,0
2018-12-15T02:01:56.045Z,0
2018-12-15T02:02:36.441Z,0
2018-12-15T02:03:16.831Z,0
2018-12-15T02:05:33.733Z,0
2018-12-15T02:06:22.584Z,0
2018-12-15T02:07:03.089Z,0
2018-12-15T02:07:43.429Z,0
2018-12-15T02:08:23.743Z,0
2018-12-15T02:09:04.150Z,0
2018-12-15T02:09:44.535Z,0
2018-12-15T02:10:25.351Z,0
2018-12-15T02:11:05.609Z,0
2018-12-15T02:11:46.111Z,0
2018-12-15T02:12:26.656Z,0
2018-12-15T02:13:08.024Z,0
2018-12-15T02:13:48.427Z,0
2018-12-15T02:14:29.932Z,0
2018-12-15T02:15:10.290Z,0
2018-12-15T02:15:50.620Z,0
2018-12-15T02:16:31.031Z,0
2018-12-15T02:17:11.449Z,0
2018-12-15T02:17:51.832Z,0
2018-12-15T02:18:32.221Z,0
2018-12-15T02:19:12.645Z,0
2018-12-15T02:19:53.035Z,0
2018-12-15T02:20:33.362Z,0
2018-12-15T02:23:09.735Z,0
2018-12-15T02:23:50.150Z,0
2018-12-15T02:24:30.546Z,0
2018-12-15T02:25:10.960Z,0
2018-12-15T02:25:51.372Z,0
2018-12-15T02:26:31.812Z,0
2018-12-15T02:28:59.632Z,0
2018-12-15T02:29:40.050Z,0
2018-12-15T02:30:20.473Z,0
2018-12-15T02:31:00.885Z,0
2018-12-15T02:31:41.230Z,0
2018-12-15T02:34:26.603Z,0
2018-12-15T02:37:09.400Z,0
2018-12-15T02:37:49.806Z,0
2018-12-15T02:38:30.196Z,0
2018-12-15T02:39:10.628Z,0
2018-12-15T02:39:50.967Z,0
2018-12-15T02:40:31.353Z,0
2018-12-15T02:41:11.757Z,0
2018-12-15T02:41:52.114Z,0
2018-12-15T02:42:32.528Z,0
2018-12-15T02:43:12.930Z,0
2018-12-15T02:43:53.307Z,0
2018-12-15T02:44:33.692Z,0
2018-12-15T02:45:14.082Z,0
2018-12-15T02:45:54.492Z,0
2018-12-15T02:46:34.884Z,0
2018-12-15T02:49:07.599Z,0
2018-12-15T02:49:48.028Z,0
2018-12-15T02:50:28.458Z,0
2018-12-15T02:51:08.847Z,0
2018-12-15T02:51:49.226Z,0
2018-12-15T02:52:29.626Z,0
2018-12-15T02:53:10.009Z,0
2018-12-15T02:53:50.455Z,0
2018-12-15T02:54:30.858Z,0
2018-12-15T02:55:11.222Z,0
2018-12-15T02:55:51.613Z,0
2018-12-15T02:56:32.000Z,0
2018-12-15T02:57:12.414Z,0
2018-12-15T02:57:52.784Z,0
2018-12-15T02:58:33.166Z,0
2018-12-15T02:59:13.541Z,0
2018-12-15T03:01:53.249Z,0
2018-12-15T03:02:45.058Z,0
2018-12-15T03:05:25.766Z,0
2018-12-15T03:06:06.165Z,0
2018-12-15T03:06:46.559Z,0
2018-12-15T03:07:26.989Z,0
2018-12-15T03:08:07.355Z,0
2018-12-15T03:08:47.765Z,0
2018-12-15T03:09:28.154Z,0
2018-12-15T03:10:08.536Z,0
2018-12-15T03:10:48.963Z,0
2018-12-15T03:11:30.212Z,0
2018-12-15T03:12:10.587Z,0
2018-12-15T03:12:51.009Z,0
2018-12-15T03:13:31.379Z,0
2018-12-15T03:14:11.777Z,0
2018-12-15T03:14:52.130Z,0
2018-12-15T03:17:04.738Z,0
2018-12-15T03:17:48.824Z,0
2018-12-15T03:18:25.459Z,0
2018-12-15T03:19:05.864Z,0
2018-12-15T03:19:46.256Z,0
2018-12-15T03:20:26.682Z,0
2018-12-15T03:21:07.031Z,0
2018-12-15T03:21:47.422Z,0
2018-12-15T03:22:27.810Z,0
2018-12-15T03:23:08.188Z,0
2018-12-15T03:23:48.573Z,0
2018-12-15T03:24:28.969Z,0
2018-12-15T03:25:09.364Z,0
2018-12-15T03:25:49.793Z,0
2018-12-15T03:26:30.218Z,0
2018-12-15T03:27:10.670Z,0
2018-12-15T03:27:50.957Z,0
2018-12-15T03:28:31.360Z,0
2018-12-15T03:29:11.723Z,0
2018-12-15T03:29:52.082Z,0
2018-12-15T03:30:32.465Z,0
2018-12-15T03:31:12.856Z,0
2018-12-15T03:31:53.272Z,0
2018-12-15T03:32:33.671Z,0
2018-12-15T03:33:14.090Z,0
2018-12-15T03:33:54.462Z,0
2018-12-15T03:34:34.895Z,0
2018-12-15T03:35:15.313Z,0
2018-12-15T03:35:55.688Z,0
2018-12-15T03:36:36.089Z,0
2018-12-15T03:37:16.482Z,0
2018-12-15T03:37:56.885Z,0
2018-12-15T03:38:37.306Z,0
2018-12-15T03:39:17.710Z,0
2018-12-15T03:39:58.103Z,0
2018-12-15T03:40:38.495Z,0
2018-12-15T03:41:18.885Z,0
2018-12-15T03:41:59.267Z,0
2018-12-15T03:42:39.691Z,0
2018-12-15T03:43:20.062Z,0
2018-12-15T03:44:00.451Z,0
2018-12-15T03:44:40.864Z,0
2018-12-15T03:45:21.254Z,0
2018-12-15T03:46:01.658Z,0
2018-12-15T03:46:42.045Z,0
2018-12-15T03:47:22.427Z,0
2018-12-15T03:48:02.845Z,0
2018-12-15T03:48:43.246Z,0
2018-12-15T03:49:23.630Z,0
2018-12-15T03:50:04.067Z,0
2018-12-15T03:50:44.403Z,0
2018-12-15T03:51:24.794Z,0
2018-12-15T03:52:05.206Z,0
2018-12-15T03:52:45.657Z,0
2018-12-15T03:53:25.974Z,0
2018-12-15T03:54:06.372Z,0
2018-12-15T03:54:46.800Z,0
2018-12-15T03:55:27.192Z,0
2018-12-15T03:56:09.090Z,0
2018-12-15T03:56:49.491Z,0
2018-12-15T03:57:29.894Z,0
2018-12-15T03:58:10.272Z,0
2018-12-15T03:58:50.690Z,0
2018-12-15T03:59:31.091Z,0
2018-12-15T04:00:11.469Z,0
2018-12-15T04:00:51.900Z,0
2018-12-15T04:01:32.286Z,0
2018-12-15T04:02:12.708Z,0
2018-12-15T04:02:53.112Z,0
2018-12-15T04:03:33.510Z,0
2018-12-15T04:04:13.900Z,0
2018-12-15T04:04:54.288Z,0
2018-12-15T04:05:34.677Z,0
2018-12-15T04:06:15.031Z,0
2018-12-15T04:06:55.402Z,0
2018-12-15T04:07:35.824Z,0
2018-12-15T04:08:16.236Z,0
2018-12-15T04:08:56.608Z,0
2018-12-15T04:09:37.007Z,0
2018-12-15T04:10:17.381Z,0
2018-12-15T04:10:57.779Z,0
2018-12-15T04:11:38.185Z,0
2018-12-15T04:12:18.571Z,0
2018-12-15T04:12:58.986Z,0
2018-12-15T04:13:39.374Z,0
2018-12-15T04:14:19.765Z,0
2018-12-15T04:16:32.226Z,0
2018-12-15T04:17:12.653Z,0
2018-12-15T04:17:53.076Z,0
2018-12-15T04:18:33.487Z,0
2018-12-15T04:19:13.885Z,0
2018-12-15T04:19:54.286Z,0
2018-12-15T04:20:34.665Z,0
2018-12-15T04:21:15.046Z,0
2018-12-15T04:21:55.459Z,0
2018-12-15T04:22:35.847Z,0
2018-12-15T04:23:16.234Z,0
2018-12-15T04:23:56.628Z,0
2018-12-15T04:24:37.038Z,0
2018-12-15T04:25:17.445Z,0
2018-12-15T04:25:57.836Z,0
2018-12-15T04:26:38.214Z,0
2018-12-15T04:27:18.612Z,0
2018-12-15T04:27:58.988Z,0
2018-12-15T04:28:39.400Z,0
2018-12-15T05:09:49.749Z,0
2018-12-15T05:10:30.167Z,0
2018-12-15T05:11:10.603Z,0
2018-12-15T05:11:51.015Z,0
2018-12-15T05:12:31.393Z,0
2018-12-15T05:13:11.815Z,0
2018-12-15T05:13:52.233Z,0
2018-12-15T05:14:32.640Z,0
2018-12-15T05:15:13.017Z,0
2018-12-15T05:15:53.419Z,0
2018-12-15T05:16:33.827Z,0
2018-12-15T05:17:14.221Z,0
2018-12-15T05:17:54.629Z,0
2018-12-15T05:18:35.038Z,0
2018-12-15T05:19:15.449Z,0
2018-12-15T05:19:55.873Z,0
2018-12-15T05:20:36.281Z,0
2018-12-15T05:21:16.688Z,0
2018-12-15T05:21:57.082Z,0
2018-12-15T05:22:37.509Z,0
2018-12-15T05:23:17.927Z,0
2018-12-15T05:23:58.352Z,0
2018-12-15T05:24:38.781Z,0
2018-12-15T05:25:19.196Z,0
2018-12-15T05:27:31.911Z,0
2018-12-15T05:28:12.330Z,0
2018-12-15T05:28:52.757Z,0
2018-12-15T05:29:33.553Z,0
2018-12-15T05:30:13.594Z,0
2018-12-15T05:30:54.014Z,0
2018-12-15T05:31:34.438Z,0
2018-12-15T05:32:14.850Z,0
2018-12-15T05:32:55.272Z,0
2018-12-15T05:35:22.958Z,0
2018-12-15T05:36:03.345Z,0
2018-12-15T05:36:43.758Z,0
2018-12-15T05:37:24.164Z,0
2018-12-15T05:38:04.568Z,0
2018-12-15T05:38:44.975Z,0
2018-12-15T05:40:57.438Z,0
2018-12-15T05:41:37.866Z,0
2018-12-15T05:42:18.278Z,0
2018-12-15T05:42:58.682Z,0
2018-12-15T05:43:39.070Z,0
2018-12-15T05:44:19.479Z,0
2018-12-15T05:44:59.905Z,0
2018-12-15T05:45:40.365Z,0
2018-12-15T05:46:20.728Z,0
2018-12-15T05:47:01.109Z,0
2018-12-15T05:47:41.464Z,0
2018-12-15T05:48:25.049Z,0
2018-12-15T05:49:02.238Z,0
2018-12-15T05:49:42.662Z,0
2018-12-15T05:50:23.091Z,0
2018-12-15T05:51:03.493Z,0
2018-12-15T05:51:43.904Z,0
2018-12-15T05:52:24.325Z,0
2018-12-15T05:53:04.748Z,0
2018-12-15T05:53:45.166Z,0
2018-12-15T05:56:12.815Z,0
2018-12-15T05:56:53.234Z,0
2018-12-15T05:57:33.668Z,0
2018-12-15T05:58:14.101Z,0
2018-12-15T05:58:54.518Z,0
2018-12-15T05:59:34.946Z,0
2018-12-15T06:00:15.399Z,0
2018-12-15T06:00:55.797Z,0
2018-12-15T06:01:36.227Z,0
2018-12-15T06:02:16.649Z,0
2018-12-15T06:02:57.042Z,0
2018-12-15T06:03:37.450Z,0
2018-12-15T06:04:17.827Z,0
2018-12-15T06:04:58.203Z,0
2018-12-15T06:05:38.579Z,0
2018-12-15T06:06:18.975Z,0
2018-12-15T06:06:59.343Z,0
2018-12-15T06:07:39.723Z,0
2018-12-15T06:09:44.097Z,0
2018-12-15T06:10:23.242Z,0
2018-12-15T06:11:05.359Z,0
2018-12-15T06:12:02.704Z,0
2018-12-15T06:12:43.038Z,0
2018-12-15T06:13:23.447Z,0
2018-12-15T06:14:04.218Z,0
2018-12-15T06:14:44.191Z,0
2018-12-15T06:15:24.594Z,0
2018-12-15T06:16:04.979Z,0
2018-12-15T06:16:45.327Z,0
2018-12-15T06:17:25.729Z,0
2018-12-15T06:18:06.164Z,0
2018-12-15T06:18:46.560Z,0
2018-12-15T06:19:29.545Z,0
2018-12-15T06:20:11.538Z,0
2018-12-15T06:20:51.946Z,0
2018-12-15T06:21:34.185Z,0
2018-12-15T06:22:14.629Z,0
2018-12-15T06:22:55.193Z,0
2018-12-15T06:23:37.439Z,0
2018-12-15T06:24:17.726Z,0
2018-12-15T06:24:59.091Z,0
2018-12-15T06:25:39.526Z,0
2018-12-15T06:26:22.497Z,0
2018-12-15T06:27:03.692Z,0
2018-12-15T06:29:25.061Z,0
2018-12-15T06:31:58.269Z,0
2018-12-15T06:32:38.631Z,0
2018-12-15T06:33:19.274Z,0
2018-12-15T06:33:59.671Z,0
2018-12-15T06:34:40.052Z,0
2018-12-15T06:35:20.491Z,0
2018-12-15T06:36:00.861Z,0
2018-12-15T06:36:41.270Z,0
2018-12-15T06:37:21.661Z,0
2018-12-15T06:38:02.040Z,0
2018-12-15T06:38:42.412Z,0
2018-12-15T06:39:22.832Z,0
2018-12-15T06:40:03.229Z,0
2018-12-15T06:40:43.612Z,0
2018-12-15T06:41:23.980Z,0
2018-12-15T06:42:04.360Z,0
2018-12-15T06:42:44.740Z,0
2018-12-15T06:43:25.142Z,0
2018-12-15T06:46:07.631Z,0
2018-12-15T06:46:48.567Z,0
2018-12-15T06:47:28.928Z,0
2018-12-15T06:48:09.314Z,0
2018-12-15T06:48:49.716Z,0
2018-12-15T06:49:30.091Z,0
2018-12-15T06:50:10.506Z,0
2018-12-15T06:50:50.873Z,0
2018-12-15T06:51:31.303Z,0
2018-12-15T06:52:11.666Z,0
2018-12-15T06:52:52.086Z,0
2018-12-15T06:53:32.404Z,0
2018-12-15T06:54:12.845Z,0
2018-12-15T06:54:53.243Z,0
2018-12-15T06:55:33.955Z,0
2018-12-15T06:56:14.053Z,0
2018-12-15T06:56:54.420Z,0
2018-12-15T06:57:34.800Z,0
2018-12-15T06:58:15.163Z,0
2018-12-15T06:58:55.609Z,0
2018-12-15T06:59:39.762Z,0
2018-12-15T07:00:20.037Z,0
2018-12-15T07:01:00.199Z,0
2018-12-15T07:01:40.624Z,0
2018-12-15T07:02:21.454Z,0
2018-12-15T07:03:01.898Z,0
2018-12-15T07:03:42.305Z,0
2018-12-15T07:04:22.682Z,0
2018-12-15T07:05:02.999Z,0
2018-12-15T07:05:43.484Z,0
2018-12-15T07:06:23.890Z,0
2018-12-15T07:07:04.361Z,0
2018-12-15T07:07:45.651Z,0
2018-12-15T07:08:26.133Z,0
2018-12-15T07:09:06.520Z,0
2018-12-15T07:09:46.956Z,0
2018-12-15T07:10:27.331Z,0
2018-12-15T07:11:07.732Z,4
2018-12-15T07:11:48.132Z,4
2018-12-15T07:12:28.475Z,4
2018-12-15T07:13:08.916Z,4
2018-12-15T07:13:49.375Z,0
2018-12-15T07:14:30.594Z,0
2018-12-15T07:15:10.967Z,0
2018-12-15T07:15:51.405Z,4
2018-12-15T07:16:31.792Z,4
2018-12-15T07:17:12.181Z,4
2018-12-15T07:17:52.595Z,4
2018-12-15T07:18:33.035Z,4
2018-12-15T07:19:13.435Z,4
2018-12-15T07:19:53.861Z,4
2018-12-15T07:20:34.244Z,4
2018-12-15T07:21:14.614Z,4
2018-12-15T07:21:54.957Z,4
2018-12-15T07:22:35.336Z,8
2018-12-15T07:23:15.792Z,4
2018-12-15T07:23:56.208Z,4
2018-12-15T07:24:36.556Z,8
2018-12-15T07:25:16.954Z,8
2018-12-15T07:25:57.322Z,8
2018-12-15T07:26:37.778Z,8
2018-12-15T07:27:18.168Z,8
2018-12-15T07:27:58.575Z,8
2018-12-15T07:28:38.961Z,8
2018-12-15T07:29:19.693Z,12
2018-12-15T07:29:59.756Z,12
2018-12-15T07:30:40.193Z,8
2018-12-15T07:31:20.720Z,12
2018-12-15T07:32:01.706Z,12
2018-12-15T07:32:42.227Z,12
2018-12-15T07:33:22.671Z,12
2018-12-15T07:34:04.113Z,12
2018-12-15T07:34:44.546Z,12
2018-12-15T07:35:25.009Z,16
2018-12-15T07:36:05.399Z,16
2018-12-15T07:36:45.804Z,16
2018-12-15T07:37:26.237Z,16
2018-12-15T07:38:06.976Z,20
2018-12-15T07:38:47.459Z,16
2018-12-15T07:39:28.557Z,20
2018-12-15T07:40:08.560Z,20
2018-12-15T07:40:48.769Z,20
2018-12-15T07:41:29.221Z,20
2018-12-15T07:42:11.245Z,20
2018-12-15T07:42:51.425Z,24
2018-12-15T07:43:32.289Z,20
2018-12-15T07:44:13.038Z,24
2018-12-15T07:44:53.331Z,24
2018-12-15T07:45:33.880Z,28
2018-12-15T07:46:14.210Z,24
2018-12-15T07:46:54.981Z,28
2018-12-15T07:47:35.624Z,28
2018-12-15T07:48:16.087Z,28
2018-12-15T07:48:56.540Z,28
2018-12-15T07:49:36.882Z,28
2018-12-15T07:50:17.435Z,32
2018-12-15T07:50:58.043Z,28
2018-12-15T07:51:38.483Z,32
2018-12-15T07:52:19.016Z,32
2018-12-15T07:52:59.419Z,32
2018-12-15T07:53:40.002Z,36
2018-12-15T07:54:20.429Z,36
2018-12-15T07:55:01.034Z,40
2018-12-15T07:55:41.572Z,36
2018-12-15T07:56:22.133Z,40
2018-12-15T07:57:02.601Z,36
2018-12-15T07:57:43.093Z,40
2018-12-15T07:58:23.974Z,40
2018-12-15T07:59:06.074Z,44
2018-12-15T07:59:46.579Z,40
2018-12-15T08:00:27.561Z,44
2018-12-15T08:01:08.440Z,44
2018-12-15T08:01:48.827Z,48
2018-12-15T08:02:29.532Z,48
2018-12-15T08:03:10.349Z,48
2018-12-15T08:03:50.860Z,44
2018-12-15T08:04:31.494Z,44
2018-12-15T08:05:12.401Z,44
2018-12-15T08:05:52.847Z,44
2018-12-15T08:06:33.390Z,44
2018-12-15T08:07:13.846Z,48
2018-12-15T08:07:54.359Z,52
2018-12-15T08:08:34.748Z,52
2018-12-15T08:09:15.060Z,52
2018-12-15T08:09:55.787Z,52
2018-12-15T08:10:37.918Z,52
2018-12-15T08:11:18.484Z,56
2018-12-15T08:11:58.835Z,60
2018-12-15T08:12:39.410Z,60
2018-12-15T08:13:20.251Z,60
2018-12-15T08:14:00.634Z,64
2018-12-15T08:14:42.076Z,64
2018-12-15T08:15:23.165Z,64
2018-12-15T08:16:03.967Z,64
2018-12-15T08:16:44.416Z,64
2018-12-15T08:17:25.251Z,64
2018-12-15T08:18:06.230Z,64
2018-12-15T08:18:47.167Z,68
2018-12-15T08:19:27.807Z,68
2018-12-15T08:20:08.456Z,68
2018-12-15T08:20:48.817Z,68
2018-12-15T08:21:29.575Z,72
2018-12-15T08:22:10.219Z,72
2018-12-15T08:22:53.713Z,72
2018-12-15T08:23:36.268Z,72
2018-12-15T08:24:16.900Z,76
2018-12-15T08:24:57.388Z,72
2018-12-15T08:25:37.849Z,76
2018-12-15T08:26:18.176Z,80
2018-12-15T08:26:58.943Z,80
2018-12-15T08:27:39.638Z,80
2018-12-15T08:28:20.273Z,80
2018-12-15T08:29:00.545Z,80
2018-12-15T08:29:40.938Z,84
2018-12-15T08:30:21.519Z,84
2018-12-15T08:31:02.333Z,84
2018-12-15T08:31:42.988Z,84
2018-12-15T08:32:23.613Z,84
2018-12-15T08:33:04.206Z,88
2018-12-15T08:33:45.387Z,84
2018-12-15T08:34:27.035Z,88
2018-12-15T08:35:07.425Z,88
2018-12-15T08:35:47.897Z,88
2018-12-15T08:36:28.599Z,88
2018-12-15T08:37:09.081Z,92
2018-12-15T08:37:49.789Z,92
2018-12-15T08:38:30.091Z,88
2018-12-15T08:39:11.178Z,92
2018-12-15T08:39:52.251Z,96
2018-12-15T08:40:34.772Z,96
2018-12-15T08:41:16.598Z,96
2018-12-15T08:42:00.315Z,100
2018-12-15T08:42:40.655Z,96
2018-12-15T08:43:22.993Z,100
2018-12-15T08:44:04.290Z,100
2018-12-15T08:44:44.911Z,100
2018-12-15T08:45:25.317Z,100
2018-12-15T08:46:06.067Z,96
2018-12-15T08:46:46.252Z,100
2018-12-15T08:47:26.765Z,104
2018-12-15T08:48:07.485Z,104
2018-12-15T08:48:48.795Z,104
2018-12-15T08:49:29.489Z,108
2018-12-15T08:50:10.089Z,108
2018-12-15T08:50:50.464Z,112
2018-12-15T08:51:30.811Z,108
2018-12-15T08:52:11.401Z,116
2018-12-15T08:52:51.918Z,116
2018-12-15T08:53:33.173Z,120
2018-12-15T08:54:14.347Z,120
2018-12-15T08:54:54.774Z,120
2018-12-15T08:55:35.442Z,124
2018-12-15T08:56:16.052Z,120
2018-12-15T08:56:56.395Z,124
2018-12-15T08:57:36.912Z,124
2018-12-15T08:58:17.473Z,128
2018-12-15T08:58:58.106Z,128
2018-12-15T08:59:38.937Z,132
2018-12-15T09:00:19.559Z,136
2018-12-15T09:01:00.167Z,132
2018-12-15T09:01:40.589Z,132
2018-12-15T09:02:21.507Z,132
2018-12-15T09:03:02.125Z,136
2018-12-15T09:03:42.481Z,136
2018-12-15T09:04:23.602Z,136
2018-12-15T09:05:04.087Z,136
2018-12-15T09:07:48.157Z,136
2018-12-15T09:08:40.690Z,132
2018-12-15T09:09:32.933Z,132
2018-12-15T09:10:25.817Z,136
2018-12-15T09:11:18.936Z,132
2018-12-15T09:12:11.084Z,132
2018-12-15T09:13:03.332Z,136
2018-12-15T09:14:06.013Z,144
2018-12-15T09:14:57.057Z,144
2018-12-15T09:15:49.807Z,144
2018-12-15T09:16:41.735Z,144
2018-12-15T09:17:34.180Z,144
2018-12-15T09:18:26.487Z,144
2018-12-15T09:19:18.448Z,148
2018-12-15T09:20:10.787Z,140
2018-12-15T09:21:03.133Z,140
2018-12-15T09:21:56.404Z,148
2018-12-15T09:22:49.590Z,152
2018-12-15T09:23:41.710Z,148
2018-12-15T09:24:34.590Z,156
2018-12-15T09:25:30.191Z,156
2018-12-15T09:26:23.100Z,156
2018-12-15T09:27:15.696Z,156
2018-12-15T09:28:08.259Z,156
2018-12-15T09:29:01.051Z,168
2018-12-15T09:29:53.233Z,176
2018-12-15T09:30:46.597Z,176
2018-12-15T09:31:39.215Z,180
2018-12-15T09:32:33.087Z,188
2018-12-15T09:33:27.707Z,192
2018-12-15T09:34:20.453Z,200
2018-12-15T09:35:13.694Z,196
2018-12-15T09:36:05.871Z,192
2018-12-15T09:36:59.226Z,196
2018-12-15T09:37:53.582Z,200
2018-12-15T09:38:47.354Z,204
2018-12-15T09:39:29.969Z,200
2018-12-15T09:40:11.472Z,204
2018-12-15T09:40:51.924Z,204
2018-12-15T09:41:32.611Z,204
2018-12-15T09:42:13.211Z,204
2018-12-15T09:42:53.938Z,200
2018-12-15T09:43:35.394Z,196
2018-12-15T09:44:15.675Z,200
2018-12-15T09:44:56.323Z,200
2018-12-15T09:45:36.707Z,204
2018-12-15T09:46:18.083Z,208
2018-12-15T09:46:58.706Z,216
2018-12-15T09:47:39.026Z,228
2018-12-15T09:48:19.561Z,224
2018-12-15T09:49:02.917Z,224
2018-12-15T09:49:43.757Z,220
2018-12-15T09:50:24.038Z,220
2018-12-15T09:51:04.696Z,224
2018-12-15T09:51:45.477Z,224
2018-12-15T09:52:26.423Z,228
2018-12-15T09:53:07.094Z,236
2018-12-15T09:53:47.576Z,232
2018-12-15T09:54:27.961Z,232
2018-12-15T09:55:08.704Z,236
2018-12-15T09:55:50.608Z,244
2018-12-15T09:56:30.729Z,248
2018-12-15T09:57:11.314Z,248
2018-12-15T09:57:51.939Z,248
2018-12-15T09:58:32.268Z,244
2018-12-15T09:59:12.761Z,240
2018-12-15T09:59:53.493Z,244
2018-12-15T10:00:34.086Z,244
2018-12-15T10:01:14.392Z,244
2018-12-15T10:01:56.130Z,244
2018-12-15T10:02:37.104Z,256
2018-12-15T10:03:17.973Z,264
2018-12-15T10:03:58.553Z,284
2018-12-15T10:04:39.430Z,288
2018-12-15T10:05:19.828Z,272
2018-12-15T10:06:04.389Z,272
2018-12-15T10:06:45.407Z,268
2018-12-15T10:07:27.514Z,268
2018-12-15T10:08:09.028Z,268
2018-12-15T10:08:49.271Z,272
2018-12-15T10:09:29.836Z,260
2018-12-15T10:10:10.158Z,264
2018-12-15T10:10:51.036Z,260
2018-12-15T10:11:31.429Z,256
2018-12-15T10:12:13.337Z,248
2018-12-15T10:12:53.879Z,248
2018-12-15T10:13:35.900Z,252
2018-12-15T10:14:16.889Z,248
2018-12-15T10:14:57.905Z,248
2018-12-15T10:15:38.387Z,252
2018-12-15T10:16:18.855Z,256
2018-12-15T10:17:00.409Z,256
2018-12-15T10:17:41.727Z,256
2018-12-15T10:18:23.159Z,268
2018-12-15T10:19:04.671Z,260
2018-12-15T10:19:46.804Z,252
2018-12-15T10:20:27.465Z,244
2018-12-15T10:21:08.280Z,248
2018-12-15T10:21:48.698Z,244
2018-12-15T10:22:30.140Z,244
2018-12-15T10:23:12.041Z,248
2018-12-15T10:23:53.504Z,256
2018-12-15T10:24:33.908Z,252
2018-12-15T10:25:14.539Z,248
2018-12-15T10:26:16.483Z,256
2018-12-15T10:27:13.666Z,264
2018-12-15T10:27:54.306Z,264
2018-12-15T10:28:35.288Z,264
2018-12-15T10:29:15.809Z,264
2018-12-15T10:29:57.218Z,268
2018-12-15T11:07:35.884Z,392
2018-12-15T11:08:16.241Z,400
2018-12-15T11:08:56.614Z,392
2018-12-15T11:10:54.489Z,392
2018-12-15T11:11:34.706Z,392
2018-12-15T11:12:15.131Z,380
2018-12-15T11:12:55.708Z,376
2018-12-15T11:13:36.147Z,372
2018-12-15T11:14:16.609Z,388
2018-12-15T11:17:01.324Z,404
2018-12-15T11:17:54.998Z,412
2018-12-15T11:18:47.217Z,412
2018-12-15T11:19:39.358Z,420
2018-12-15T11:20:32.522Z,460
2018-12-15T11:21:24.962Z,448
2018-12-15T11:22:21.396Z,452
2018-12-15T11:23:13.943Z,464
2018-12-15T11:24:06.409Z,456
2018-12-15T11:24:58.939Z,456
2018-12-15T11:25:56.381Z,448
2018-12-15T11:26:48.410Z,464
2018-12-15T11:27:42.982Z,488
2018-12-15T11:28:38.988Z,524
2018-12-15T11:29:31.937Z,524
2018-12-15T11:30:24.650Z,536
2018-12-15T11:31:16.889Z,512
2018-12-15T11:32:10.515Z,504
2018-12-15T11:33:02.834Z,520
2018-12-15T11:33:56.894Z,524
2018-12-15T11:34:49.985Z,520
2018-12-15T11:35:43.080Z,512
2018-12-15T11:36:35.139Z,524
2018-12-15T11:37:27.528Z,508
2018-12-15T11:38:20.026Z,500
2018-12-15T11:39:12.014Z,504
2018-12-15T11:40:05.913Z,512
2018-12-15T11:40:58.626Z,508
2018-12-15T11:41:51.165Z,496
2018-12-15T11:42:43.250Z,516
2018-12-15T11:43:37.565Z,548
2018-12-15T11:44:30.566Z,552
2018-12-15T11:45:22.922Z,564
2018-12-15T11:46:16.526Z,564
2018-12-15T11:47:08.945Z,556
2018-12-15T11:48:01.633Z,552
2018-12-15T11:48:53.912Z,540
2018-12-15T11:49:47.846Z,560
2018-12-15T11:50:41.043Z,540
2018-12-15T11:51:33.362Z,536
2018-12-15T11:52:26.778Z,544
2018-12-15T11:53:20.257Z,544
2018-12-15T11:54:15.187Z,524
2018-12-15T11:55:08.907Z,536
2018-12-15T11:56:03.447Z,524
2018-12-15T11:56:57.953Z,472
2018-12-15T11:57:54.402Z,476
2018-12-15T11:58:50.744Z,484
2018-12-15T11:59:48.326Z,488
2018-12-15T12:02:13.913Z,460
2018-12-15T12:02:53.729Z,440
2018-12-15T12:03:34.158Z,428
2018-12-15T12:05:46.898Z,456
2018-12-15T12:06:27.385Z,440
2018-12-15T12:07:07.944Z,412
2018-12-15T12:07:48.060Z,408
2018-12-15T12:08:28.439Z,404
2018-12-15T12:09:08.791Z,396
2018-12-15T12:09:49.184Z,380
2018-12-15T12:10:29.582Z,368
2018-12-15T12:11:09.992Z,360
2018-12-15T12:11:50.374Z,368
2018-12-15T12:12:31.856Z,364
2018-12-15T12:13:11.362Z,368
2018-12-15T12:13:51.802Z,376
2018-12-15T12:14:32.182Z,372
2018-12-15T12:15:12.674Z,372
2018-12-15T12:15:53.094Z,380
2018-12-15T12:16:33.619Z,388
2018-12-15T12:17:14.061Z,372
2018-12-15T12:17:54.455Z,360